sensor_id;sensor_type;location;lat;lon;timestamp;temperature;humidity
7934;DHT22;4012;48.896;9.192;2023-05-10T00:01:40;14.60;99.90
7934;DHT22;4012;48.896;9.192;2023-05-10T00:04:06;14.60;99.90
7934;DHT22;4012;48.896;9.192;2023-05-10T00:06:31;14.60;99.90
7934;DHT22;4012;48.896;9.192;2023-05-10T00:08:58;14.50;99.90
7934;DHT22;4012;48.896;9.192;2023-05-10T00:11:24;14.50;99.90
7934;DHT22;4012;48.896;9.192;2023-05-10T00:13:49;14.50;99.90
7934;DHT22;4012;48.896;9.192;2023-05-10T00:16:15;14.40;99.90
7934;DHT22;4012;48.896;9.192;2023-05-10T00:18:41;14.30;99.90
7934;DHT22;4012;48.896;9.192;2023-05-10T00:21:06;14.30;99.90
7934;DHT22;4012;48.896;9.192;2023-05-10T00:23:32;14.20;99.90
7934;DHT22;4012;48.896;9.192;2023-05-10T00:25:57;14.20;99.90
7934;DHT22;4012;48.896;9.192;2023-05-10T00:28:23;14.20;99.90
7934;DHT22;4012;48.896;9.192;2023-05-10T00:30:49;14.10;99.90
7934;DHT22;4012;48.896;9.192;2023-05-10T00:33:14;14.20;99.90
7934;DHT22;4012;48.896;9.192;2023-05-10T00:35:40;14.00;99.90
7934;DHT22;4012;48.896;9.192;2023-05-10T00:38:05;14.00;99.90
7934;DHT22;4012;48.896;9.192;2023-05-10T00:40:31;14.00;99.90
7934;DHT22;4012;48.896;9.192;2023-05-10T00:42:57;13.90;99.90
7934;DHT22;4012;48.896;9.192;2023-05-10T00:45:24;13.90;99.90
7934;DHT22;4012;48.896;9.192;2023-05-10T00:47:51;13.90;99.90
7934;DHT22;4012;48.896;9.192;2023-05-10T00:50:20;13.90;99.90
7934;DHT22;4012;48.896;9.192;2023-05-10T00:52:46;13.80;99.90
7934;DHT22;4012;48.896;9.192;2023-05-10T00:55:13;13.90;99.90
7934;DHT22;4012;48.896;9.192;2023-05-10T00:57:39;13.80;99.90
7934;DHT22;4012;48.896;9.192;2023-05-10T01:00:05;13.80;99.90
7934;DHT22;4012;48.896;9.192;2023-05-10T01:02:31;13.80;99.90
7934;DHT22;4012;48.896;9.192;2023-05-10T01:04:58;13.80;99.90
7934;DHT22;4012;48.896;9.192;2023-05-10T01:07:24;13.80;99.90
7934;DHT22;4012;48.896;9.192;2023-05-10T01:09:49;13.80;99.90
7934;DHT22;4012;48.896;9.192;2023-05-10T01:12:15;13.80;99.90
7934;DHT22;4012;48.896;9.192;2023-05-10T01:14:41;13.80;99.90
7934;DHT22;4012;48.896;9.192;2023-05-10T01:17:07;13.60;99.90
7934;DHT22;4012;48.896;9.192;2023-05-10T01:19:34;13.70;99.90
7934;DHT22;4012;48.896;9.192;2023-05-10T01:22:15;13.60;99.90
7934;DHT22;4012;48.896;9.192;2023-05-10T01:30:51;13.70;99.90
7934;DHT22;4012;48.896;9.192;2023-05-10T01:33:27;13.70;99.90
7934;DHT22;4012;48.896;9.192;2023-05-10T01:38:37;13.70;99.90
7934;DHT22;4012;48.896;9.192;2023-05-10T01:41:14;13.70;99.90
7934;DHT22;4012;48.896;9.192;2023-05-10T01:44:02;13.80;99.90
7934;DHT22;4012;48.896;9.192;2023-05-10T01:46:33;13.70;99.90
7934;DHT22;4012;48.896;9.192;2023-05-10T01:49:01;13.70;99.90
7934;DHT22;4012;48.896;9.192;2023-05-10T01:51:37;13.70;99.90
7934;DHT22;4012;48.896;9.192;2023-05-10T01:54:05;13.70;99.90
7934;DHT22;4012;48.896;9.192;2023-05-10T01:56:35;13.70;99.90
7934;DHT22;4012;48.896;9.192;2023-05-10T01:59:05;13.70;99.90
7934;DHT22;4012;48.896;9.192;2023-05-10T02:01:33;13.70;99.90
7934;DHT22;4012;48.896;9.192;2023-05-10T02:04:01;13.70;99.90
7934;DHT22;4012;48.896;9.192;2023-05-10T02:06:27;13.70;99.90
7934;DHT22;4012;48.896;9.192;2023-05-10T02:08:53;13.70;99.90
7934;DHT22;4012;48.896;9.192;2023-05-10T02:11:20;13.60;99.90
7934;DHT22;4012;48.896;9.192;2023-05-10T02:13:49;13.60;99.90
7934;DHT22;4012;48.896;9.192;2023-05-10T02:16:16;13.60;99.90
7934;DHT22;4012;48.896;9.192;2023-05-10T02:18:44;13.50;99.90
7934;DHT22;4012;48.896;9.192;2023-05-10T02:21:10;13.50;99.90
7934;DHT22;4012;48.896;9.192;2023-05-10T02:23:36;13.50;99.90
7934;DHT22;4012;48.896;9.192;2023-05-10T02:26:03;13.50;99.90
7934;DHT22;4012;48.896;9.192;2023-05-10T02:28:29;13.50;99.90
7934;DHT22;4012;48.896;9.192;2023-05-10T02:30:56;13.50;99.90
7934;DHT22;4012;48.896;9.192;2023-05-10T02:33:23;13.50;99.90
7934;DHT22;4012;48.896;9.192;2023-05-10T02:35:50;13.50;99.90
7934;DHT22;4012;48.896;9.192;2023-05-10T02:38:17;13.50;99.90
7934;DHT22;4012;48.896;9.192;2023-05-10T02:40:44;13.50;99.90
7934;DHT22;4012;48.896;9.192;2023-05-10T02:43:13;13.50;99.90
7934;DHT22;4012;48.896;9.192;2023-05-10T02:45:40;13.50;99.90
7934;DHT22;4012;48.896;9.192;2023-05-10T02:48:06;13.50;99.90
7934;DHT22;4012;48.896;9.192;2023-05-10T02:50:33;13.50;99.90
7934;DHT22;4012;48.896;9.192;2023-05-10T02:53:09;13.50;99.90
7934;DHT22;4012;48.896;9.192;2023-05-10T02:55:38;13.60;99.90
7934;DHT22;4012;48.896;9.192;2023-05-10T02:58:06;13.60;99.90
7934;DHT22;4012;48.896;9.192;2023-05-10T03:00:31;13.60;99.90
7934;DHT22;4012;48.896;9.192;2023-05-10T03:02:57;13.60;99.90
7934;DHT22;4012;48.896;9.192;2023-05-10T03:05:23;13.70;99.90
7934;DHT22;4012;48.896;9.192;2023-05-10T03:07:49;13.70;99.90
7934;DHT22;4012;48.896;9.192;2023-05-10T03:10:17;13.70;99.90
7934;DHT22;4012;48.896;9.192;2023-05-10T03:18:07;13.80;99.90
7934;DHT22;4012;48.896;9.192;2023-05-10T03:20:50;13.80;99.90
7934;DHT22;4012;48.896;9.192;2023-05-10T03:23:29;13.80;99.90
7934;DHT22;4012;48.896;9.192;2023-05-10T03:25:55;13.80;99.90
7934;DHT22;4012;48.896;9.192;2023-05-10T03:28:22;13.80;99.90
7934;DHT22;4012;48.896;9.192;2023-05-10T03:30:49;13.80;99.90
7934;DHT22;4012;48.896;9.192;2023-05-10T03:33:15;13.80;99.90
7934;DHT22;4012;48.896;9.192;2023-05-10T03:35:41;13.80;99.90
7934;DHT22;4012;48.896;9.192;2023-05-10T03:38:06;13.80;99.90
7934;DHT22;4012;48.896;9.192;2023-05-10T03:40:32;13.80;99.90
7934;DHT22;4012;48.896;9.192;2023-05-10T03:43:01;13.80;99.90
7934;DHT22;4012;48.896;9.192;2023-05-10T03:45:27;13.80;99.90
7934;DHT22;4012;48.896;9.192;2023-05-10T03:47:52;13.80;99.90
7934;DHT22;4012;48.896;9.192;2023-05-10T03:50:18;13.70;99.90
7934;DHT22;4012;48.896;9.192;2023-05-10T03:52:43;13.80;99.90
7934;DHT22;4012;48.896;9.192;2023-05-10T03:55:09;13.80;99.90
7934;DHT22;4012;48.896;9.192;2023-05-10T03:57:35;13.80;99.90
7934;DHT22;4012;48.896;9.192;2023-05-10T04:00:01;13.70;99.90
7934;DHT22;4012;48.896;9.192;2023-05-10T04:02:27;13.80;99.90
7934;DHT22;4012;48.896;9.192;2023-05-10T04:04:53;13.80;99.90
7934;DHT22;4012;48.896;9.192;2023-05-10T04:07:19;13.80;99.90
7934;DHT22;4012;48.896;9.192;2023-05-10T04:09:44;13.80;99.90
7934;DHT22;4012;48.896;9.192;2023-05-10T04:12:10;13.90;99.90
7934;DHT22;4012;48.896;9.192;2023-05-10T04:14:35;13.90;99.90
7934;DHT22;4012;48.896;9.192;2023-05-10T04:17:01;13.90;99.90
7934;DHT22;4012;48.896;9.192;2023-05-10T04:19:30;13.90;99.90
7934;DHT22;4012;48.896;9.192;2023-05-10T04:21:56;13.90;99.90
7934;DHT22;4012;48.896;9.192;2023-05-10T04:24:22;13.90;99.90
7934;DHT22;4012;48.896;9.192;2023-05-10T04:26:48;13.90;99.90
7934;DHT22;4012;48.896;9.192;2023-05-10T04:29:13;13.90;99.90
7934;DHT22;4012;48.896;9.192;2023-05-10T04:31:39;13.90;99.90
7934;DHT22;4012;48.896;9.192;2023-05-10T04:34:04;13.90;99.90
7934;DHT22;4012;48.896;9.192;2023-05-10T04:36:30;13.90;99.90
7934;DHT22;4012;48.896;9.192;2023-05-10T04:38:58;13.90;99.90
7934;DHT22;4012;48.896;9.192;2023-05-10T04:41:23;13.90;99.90
7934;DHT22;4012;48.896;9.192;2023-05-10T04:43:50;13.90;99.90
7934;DHT22;4012;48.896;9.192;2023-05-10T04:46:16;14.00;99.90
7934;DHT22;4012;48.896;9.192;2023-05-10T04:48:42;14.00;99.90
7934;DHT22;4012;48.896;9.192;2023-05-10T04:51:07;14.10;99.90
7934;DHT22;4012;48.896;9.192;2023-05-10T04:53:33;14.10;99.90
7934;DHT22;4012;48.896;9.192;2023-05-10T04:55:58;14.00;99.90
7934;DHT22;4012;48.896;9.192;2023-05-10T04:58:25;14.00;99.90
7934;DHT22;4012;48.896;9.192;2023-05-10T05:00:50;14.10;99.90
7934;DHT22;4012;48.896;9.192;2023-05-10T05:03:16;14.30;99.90
7934;DHT22;4012;48.896;9.192;2023-05-10T05:05:41;14.50;99.90
7934;DHT22;4012;48.896;9.192;2023-05-10T05:08:07;14.20;99.90
7934;DHT22;4012;48.896;9.192;2023-05-10T05:10:32;14.10;99.90
7934;DHT22;4012;48.896;9.192;2023-05-10T05:12:58;14.30;99.90
7934;DHT22;4012;48.896;9.192;2023-05-10T05:15:23;14.30;99.90
7934;DHT22;4012;48.896;9.192;2023-05-10T05:17:49;14.20;99.90
7934;DHT22;4012;48.896;9.192;2023-05-10T05:20:15;14.30;99.90
7934;DHT22;4012;48.896;9.192;2023-05-10T05:22:40;14.40;99.90
7934;DHT22;4012;48.896;9.192;2023-05-10T05:25:06;14.50;99.90
7934;DHT22;4012;48.896;9.192;2023-05-10T05:27:32;14.70;99.90
7934;DHT22;4012;48.896;9.192;2023-05-10T05:29:58;14.60;99.90
7934;DHT22;4012;48.896;9.192;2023-05-10T05:32:24;14.80;99.90
7934;DHT22;4012;48.896;9.192;2023-05-10T05:34:50;14.80;99.90
7934;DHT22;4012;48.896;9.192;2023-05-10T05:37:20;14.90;99.90
7934;DHT22;4012;48.896;9.192;2023-05-10T05:39:46;14.80;99.90
7934;DHT22;4012;48.896;9.192;2023-05-10T05:42:13;14.80;99.90
7934;DHT22;4012;48.896;9.192;2023-05-10T05:44:39;14.80;99.90
7934;DHT22;4012;48.896;9.192;2023-05-10T05:47:05;14.90;99.90
7934;DHT22;4012;48.896;9.192;2023-05-10T05:49:31;14.90;99.90
7934;DHT22;4012;48.896;9.192;2023-05-10T05:52:03;15.00;99.90
7934;DHT22;4012;48.896;9.192;2023-05-10T05:54:30;15.00;99.90
7934;DHT22;4012;48.896;9.192;2023-05-10T05:56:59;15.20;99.90
7934;DHT22;4012;48.896;9.192;2023-05-10T05:59:25;15.10;99.90
7934;DHT22;4012;48.896;9.192;2023-05-10T06:01:51;15.10;99.90
7934;DHT22;4012;48.896;9.192;2023-05-10T06:04:17;15.10;99.90
7934;DHT22;4012;48.896;9.192;2023-05-10T06:06:43;15.00;99.90
7934;DHT22;4012;48.896;9.192;2023-05-10T06:09:09;15.10;99.90
7934;DHT22;4012;48.896;9.192;2023-05-10T06:11:35;15.10;99.90
7934;DHT22;4012;48.896;9.192;2023-05-10T06:14:01;15.10;99.90
7934;DHT22;4012;48.896;9.192;2023-05-10T06:16:27;15.10;99.90
7934;DHT22;4012;48.896;9.192;2023-05-10T06:18:53;15.10;99.90
7934;DHT22;4012;48.896;9.192;2023-05-10T06:21:18;15.00;99.90
7934;DHT22;4012;48.896;9.192;2023-05-10T06:23:44;15.00;99.90
7934;DHT22;4012;48.896;9.192;2023-05-10T06:26:10;15.10;99.90
7934;DHT22;4012;48.896;9.192;2023-05-10T06:28:35;15.10;99.90
7934;DHT22;4012;48.896;9.192;2023-05-10T06:31:03;15.00;99.90
7934;DHT22;4012;48.896;9.192;2023-05-10T06:33:29;15.00;99.90
7934;DHT22;4012;48.896;9.192;2023-05-10T06:35:55;15.10;99.90
7934;DHT22;4012;48.896;9.192;2023-05-10T06:38:21;15.30;99.90
7934;DHT22;4012;48.896;9.192;2023-05-10T06:40:46;15.40;99.90
7934;DHT22;4012;48.896;9.192;2023-05-10T06:43:12;15.20;99.90
7934;DHT22;4012;48.896;9.192;2023-05-10T06:45:38;15.40;99.90
7934;DHT22;4012;48.896;9.192;2023-05-10T06:48:03;15.40;99.90
7934;DHT22;4012;48.896;9.192;2023-05-10T06:50:29;15.40;99.90
7934;DHT22;4012;48.896;9.192;2023-05-10T06:52:54;15.40;99.90
7934;DHT22;4012;48.896;9.192;2023-05-10T06:55:21;15.20;99.90
7934;DHT22;4012;48.896;9.192;2023-05-10T06:57:46;15.30;99.90
7934;DHT22;4012;48.896;9.192;2023-05-10T07:00:13;15.20;99.90
7934;DHT22;4012;48.896;9.192;2023-05-10T07:02:39;15.20;99.90
7934;DHT22;4012;48.896;9.192;2023-05-10T07:05:05;15.30;99.90
7934;DHT22;4012;48.896;9.192;2023-05-10T07:07:31;15.50;99.90
7934;DHT22;4012;48.896;9.192;2023-05-10T07:09:57;15.80;99.90
7934;DHT22;4012;48.896;9.192;2023-05-10T07:12:23;16.00;99.90
7934;DHT22;4012;48.896;9.192;2023-05-10T07:14:49;16.00;99.90
7934;DHT22;4012;48.896;9.192;2023-05-10T07:17:15;16.20;99.90
7934;DHT22;4012;48.896;9.192;2023-05-10T07:19:40;16.30;99.90
7934;DHT22;4012;48.896;9.192;2023-05-10T07:22:06;16.00;99.90
7934;DHT22;4012;48.896;9.192;2023-05-10T07:24:32;16.00;99.90
7934;DHT22;4012;48.896;9.192;2023-05-10T07:26:58;16.20;99.90
7934;DHT22;4012;48.896;9.192;2023-05-10T07:29:24;15.90;99.90
7934;DHT22;4012;48.896;9.192;2023-05-10T07:31:50;16.00;99.90
7934;DHT22;4012;48.896;9.192;2023-05-10T07:34:15;16.30;99.90
7934;DHT22;4012;48.896;9.192;2023-05-10T07:36:41;16.30;99.90
7934;DHT22;4012;48.896;9.192;2023-05-10T07:39:06;16.60;99.90
7934;DHT22;4012;48.896;9.192;2023-05-10T07:41:32;16.90;99.90
7934;DHT22;4012;48.896;9.192;2023-05-10T07:43:58;16.80;99.90
7934;DHT22;4012;48.896;9.192;2023-05-10T07:46:24;16.40;99.90
7934;DHT22;4012;48.896;9.192;2023-05-10T07:48:50;16.60;99.90
7934;DHT22;4012;48.896;9.192;2023-05-10T07:51:15;16.60;99.90
7934;DHT22;4012;48.896;9.192;2023-05-10T07:53:41;16.30;99.90
7934;DHT22;4012;48.896;9.192;2023-05-10T07:56:30;16.30;99.90
7934;DHT22;4012;48.896;9.192;2023-05-10T07:58:57;16.40;99.90
7934;DHT22;4012;48.896;9.192;2023-05-10T08:01:23;16.50;99.90
7934;DHT22;4012;48.896;9.192;2023-05-10T08:03:49;16.50;99.90
7934;DHT22;4012;48.896;9.192;2023-05-10T08:06:17;16.50;99.90
7934;DHT22;4012;48.896;9.192;2023-05-10T08:08:43;16.70;99.90
7934;DHT22;4012;48.896;9.192;2023-05-10T08:11:10;16.90;99.90
7934;DHT22;4012;48.896;9.192;2023-05-10T08:13:36;16.80;99.90
7934;DHT22;4012;48.896;9.192;2023-05-10T08:16:02;16.50;99.90
7934;DHT22;4012;48.896;9.192;2023-05-10T08:18:28;16.20;99.90
7934;DHT22;4012;48.896;9.192;2023-05-10T08:20:53;16.20;99.90
7934;DHT22;4012;48.896;9.192;2023-05-10T08:23:19;16.40;99.90
7934;DHT22;4012;48.896;9.192;2023-05-10T08:25:44;16.10;99.90
7934;DHT22;4012;48.896;9.192;2023-05-10T08:28:10;16.10;99.90
7934;DHT22;4012;48.896;9.192;2023-05-10T08:30:36;16.30;99.90
7934;DHT22;4012;48.896;9.192;2023-05-10T08:33:01;16.20;99.90
7934;DHT22;4012;48.896;9.192;2023-05-10T08:35:27;16.50;99.90
7934;DHT22;4012;48.896;9.192;2023-05-10T08:37:52;16.40;99.90
7934;DHT22;4012;48.896;9.192;2023-05-10T08:40:19;16.30;99.90
7934;DHT22;4012;48.896;9.192;2023-05-10T08:43:12;16.30;99.90
7934;DHT22;4012;48.896;9.192;2023-05-10T08:45:42;16.20;99.90
7934;DHT22;4012;48.896;9.192;2023-05-10T08:48:09;16.20;99.90
7934;DHT22;4012;48.896;9.192;2023-05-10T08:50:36;16.00;99.90
7934;DHT22;4012;48.896;9.192;2023-05-10T08:53:05;16.10;99.90
7934;DHT22;4012;48.896;9.192;2023-05-10T08:55:32;16.30;99.90
7934;DHT22;4012;48.896;9.192;2023-05-10T08:57:59;16.40;99.90
7934;DHT22;4012;48.896;9.192;2023-05-10T09:00:27;16.30;99.90
7934;DHT22;4012;48.896;9.192;2023-05-10T09:02:53;16.50;99.90
7934;DHT22;4012;48.896;9.192;2023-05-10T09:05:19;16.60;99.90
7934;DHT22;4012;48.896;9.192;2023-05-10T09:07:45;17.10;99.90
7934;DHT22;4012;48.896;9.192;2023-05-10T09:10:11;17.40;99.90
7934;DHT22;4012;48.896;9.192;2023-05-10T09:12:38;17.50;99.90
7934;DHT22;4012;48.896;9.192;2023-05-10T09:15:05;17.70;99.90
7934;DHT22;4012;48.896;9.192;2023-05-10T09:17:31;17.60;99.90
7934;DHT22;4012;48.896;9.192;2023-05-10T09:19:58;17.90;99.90
7934;DHT22;4012;48.896;9.192;2023-05-10T09:22:24;18.00;99.90
7934;DHT22;4012;48.896;9.192;2023-05-10T09:27:32;17.60;99.90
7934;DHT22;4012;48.896;9.192;2023-05-10T09:29:57;17.20;99.90
7934;DHT22;4012;48.896;9.192;2023-05-10T09:32:41;17.10;99.90
7934;DHT22;4012;48.896;9.192;2023-05-10T09:35:17;17.50;99.90
7934;DHT22;4012;48.896;9.192;2023-05-10T09:37:45;17.90;99.90
7934;DHT22;4012;48.896;9.192;2023-05-10T09:40:13;18.20;99.90
7934;DHT22;4012;48.896;9.192;2023-05-10T09:45:29;18.90;99.90
7934;DHT22;4012;48.896;9.192;2023-05-10T09:47:55;19.80;99.90
7934;DHT22;4012;48.896;9.192;2023-05-10T09:50:22;20.00;99.90
7934;DHT22;4012;48.896;9.192;2023-05-10T09:52:59;19.70;99.90
7934;DHT22;4012;48.896;9.192;2023-05-10T09:55:39;19.80;99.90
7934;DHT22;4012;48.896;9.192;2023-05-10T09:58:05;19.50;99.90
7934;DHT22;4012;48.896;9.192;2023-05-10T10:00:36;18.80;99.90
7934;DHT22;4012;48.896;9.192;2023-05-10T10:03:02;18.30;99.90
7934;DHT22;4012;48.896;9.192;2023-05-10T10:05:35;18.00;99.90
7934;DHT22;4012;48.896;9.192;2023-05-10T10:08:03;17.90;99.90
7934;DHT22;4012;48.896;9.192;2023-05-10T10:10:31;17.90;99.90
7934;DHT22;4012;48.896;9.192;2023-05-10T10:12:57;17.70;99.90
7934;DHT22;4012;48.896;9.192;2023-05-10T10:15:23;17.20;99.90
7934;DHT22;4012;48.896;9.192;2023-05-10T10:17:50;17.20;99.90
7934;DHT22;4012;48.896;9.192;2023-05-10T10:20:17;17.00;99.90
7934;DHT22;4012;48.896;9.192;2023-05-10T10:22:43;17.30;99.90
7934;DHT22;4012;48.896;9.192;2023-05-10T10:25:20;17.30;99.90
7934;DHT22;4012;48.896;9.192;2023-05-10T10:35:36;18.20;99.90
7934;DHT22;4012;48.896;9.192;2023-05-10T10:38:02;18.00;99.90
7934;DHT22;4012;48.896;9.192;2023-05-10T10:40:34;18.40;99.90
7934;DHT22;4012;48.896;9.192;2023-05-10T10:46:11;19.10;99.90
7934;DHT22;4012;48.896;9.192;2023-05-10T10:48:38;19.00;99.90
7934;DHT22;4012;48.896;9.192;2023-05-10T10:51:04;19.00;99.90
7934;DHT22;4012;48.896;9.192;2023-05-10T10:53:30;19.50;99.90
7934;DHT22;4012;48.896;9.192;2023-05-10T10:56:06;18.90;99.90
7934;DHT22;4012;48.896;9.192;2023-05-10T10:58:33;18.80;99.90
7934;DHT22;4012;48.896;9.192;2023-05-10T11:01:16;18.80;99.90
7934;DHT22;4012;48.896;9.192;2023-05-10T11:06:30;18.60;99.90
7934;DHT22;4012;48.896;9.192;2023-05-10T11:08:57;17.80;99.90
7934;DHT22;4012;48.896;9.192;2023-05-10T11:11:23;17.80;99.90
7934;DHT22;4012;48.896;9.192;2023-05-10T11:13:49;17.50;99.90
7934;DHT22;4012;48.896;9.192;2023-05-10T11:16:21;17.10;99.90
7934;DHT22;4012;48.896;9.192;2023-05-10T11:19:06;17.20;99.90
7934;DHT22;4012;48.896;9.192;2023-05-10T11:21:34;17.40;99.90
7934;DHT22;4012;48.896;9.192;2023-05-10T11:24:13;17.50;99.90
7934;DHT22;4012;48.896;9.192;2023-05-10T11:26:39;17.50;99.90
7934;DHT22;4012;48.896;9.192;2023-05-10T11:29:05;18.00;99.90
7934;DHT22;4012;48.896;9.192;2023-05-10T11:31:30;18.40;99.90
7934;DHT22;4012;48.896;9.192;2023-05-10T11:33:58;18.50;99.90
7934;DHT22;4012;48.896;9.192;2023-05-10T11:36:43;18.20;99.90
7934;DHT22;4012;48.896;9.192;2023-05-10T11:39:09;18.20;99.90
7934;DHT22;4012;48.896;9.192;2023-05-10T11:41:36;18.50;99.90
7934;DHT22;4012;48.896;9.192;2023-05-10T11:44:02;18.50;99.90
7934;DHT22;4012;48.896;9.192;2023-05-10T11:46:28;18.20;99.90
7934;DHT22;4012;48.896;9.192;2023-05-10T11:49:02;18.20;99.90
7934;DHT22;4012;48.896;9.192;2023-05-10T11:51:34;18.30;99.90
7934;DHT22;4012;48.896;9.192;2023-05-10T11:54:06;18.80;99.90
7934;DHT22;4012;48.896;9.192;2023-05-10T11:56:33;18.90;99.90
7934;DHT22;4012;48.896;9.192;2023-05-10T11:58:59;19.00;99.90
7934;DHT22;4012;48.896;9.192;2023-05-10T12:01:27;19.20;99.90
7934;DHT22;4012;48.896;9.192;2023-05-10T12:03:55;19.20;99.90
7934;DHT22;4012;48.896;9.192;2023-05-10T12:06:27;19.00;99.90
7934;DHT22;4012;48.896;9.192;2023-05-10T12:08:52;19.00;99.90
7934;DHT22;4012;48.896;9.192;2023-05-10T12:11:19;18.10;99.90
7934;DHT22;4012;48.896;9.192;2023-05-10T12:13:47;18.50;99.90
7934;DHT22;4012;48.896;9.192;2023-05-10T12:16:17;18.10;99.90
7934;DHT22;4012;48.896;9.192;2023-05-10T12:18:44;18.80;99.90
7934;DHT22;4012;48.896;9.192;2023-05-10T12:21:11;19.00;99.90
7934;DHT22;4012;48.896;9.192;2023-05-10T12:23:37;18.90;99.90
7934;DHT22;4012;48.896;9.192;2023-05-10T12:26:04;18.50;99.90
7934;DHT22;4012;48.896;9.192;2023-05-10T12:28:30;18.10;99.90
7934;DHT22;4012;48.896;9.192;2023-05-10T12:30:58;17.90;99.90
7934;DHT22;4012;48.896;9.192;2023-05-10T12:33:24;18.00;99.90
7934;DHT22;4012;48.896;9.192;2023-05-10T12:35:51;18.10;99.90
7934;DHT22;4012;48.896;9.192;2023-05-10T12:38:27;17.50;99.90
7934;DHT22;4012;48.896;9.192;2023-05-10T12:41:04;17.40;99.90
7934;DHT22;4012;48.896;9.192;2023-05-10T12:43:30;17.50;99.90
7934;DHT22;4012;48.896;9.192;2023-05-10T12:45:56;17.90;99.90
7934;DHT22;4012;48.896;9.192;2023-05-10T12:48:22;18.00;99.90
7934;DHT22;4012;48.896;9.192;2023-05-10T12:50:48;18.10;99.90
7934;DHT22;4012;48.896;9.192;2023-05-10T12:53:14;18.20;99.90
7934;DHT22;4012;48.896;9.192;2023-05-10T12:55:41;17.60;99.90
7934;DHT22;4012;48.896;9.192;2023-05-10T12:58:07;17.70;99.90
7934;DHT22;4012;48.896;9.192;2023-05-10T13:00:33;18.10;99.90
7934;DHT22;4012;48.896;9.192;2023-05-10T13:02:58;18.30;99.90
7934;DHT22;4012;48.896;9.192;2023-05-10T13:05:24;18.40;99.90
7934;DHT22;4012;48.896;9.192;2023-05-10T13:07:50;18.10;99.90
7934;DHT22;4012;48.896;9.192;2023-05-10T13:10:17;18.50;99.90
7934;DHT22;4012;48.896;9.192;2023-05-10T13:12:42;18.90;99.90
7934;DHT22;4012;48.896;9.192;2023-05-10T13:15:08;19.20;99.90
7934;DHT22;4012;48.896;9.192;2023-05-10T13:17:34;18.80;99.90
7934;DHT22;4012;48.896;9.192;2023-05-10T13:19:59;18.80;99.90
7934;DHT22;4012;48.896;9.192;2023-05-10T13:22:25;18.50;99.90
7934;DHT22;4012;48.896;9.192;2023-05-10T13:24:51;18.70;99.90
7934;DHT22;4012;48.896;9.192;2023-05-10T13:27:16;18.80;99.90
7934;DHT22;4012;48.896;9.192;2023-05-10T13:29:42;18.30;99.90
7934;DHT22;4012;48.896;9.192;2023-05-10T13:32:07;18.20;99.90
7934;DHT22;4012;48.896;9.192;2023-05-10T13:34:33;18.20;99.90
7934;DHT22;4012;48.896;9.192;2023-05-10T13:37:01;17.80;99.90
7934;DHT22;4012;48.896;9.192;2023-05-10T13:39:26;17.60;99.90
7934;DHT22;4012;48.896;9.192;2023-05-10T13:41:52;17.50;99.90
7934;DHT22;4012;48.896;9.192;2023-05-10T13:44:20;17.80;99.90
7934;DHT22;4012;48.896;9.192;2023-05-10T13:46:45;18.20;99.90
7934;DHT22;4012;48.896;9.192;2023-05-10T13:49:11;18.00;99.90
7934;DHT22;4012;48.896;9.192;2023-05-10T13:51:37;18.00;99.90
7934;DHT22;4012;48.896;9.192;2023-05-10T13:54:03;18.10;99.90
7934;DHT22;4012;48.896;9.192;2023-05-10T13:56:28;18.00;99.90
7934;DHT22;4012;48.896;9.192;2023-05-10T13:58:55;17.90;99.90
7934;DHT22;4012;48.896;9.192;2023-05-10T14:01:21;17.90;99.90
7934;DHT22;4012;48.896;9.192;2023-05-10T14:03:46;18.00;99.90
7934;DHT22;4012;48.896;9.192;2023-05-10T14:06:12;18.00;99.90
7934;DHT22;4012;48.896;9.192;2023-05-10T14:08:37;18.10;99.90
7934;DHT22;4012;48.896;9.192;2023-05-10T14:11:03;18.00;99.90
7934;DHT22;4012;48.896;9.192;2023-05-10T14:13:29;18.00;99.90
7934;DHT22;4012;48.896;9.192;2023-05-10T14:15:54;17.90;99.90
7934;DHT22;4012;48.896;9.192;2023-05-10T14:18:20;17.90;99.90
7934;DHT22;4012;48.896;9.192;2023-05-10T14:20:46;18.20;99.90
7934;DHT22;4012;48.896;9.192;2023-05-10T14:23:11;18.20;99.90
7934;DHT22;4012;48.896;9.192;2023-05-10T14:25:39;18.10;99.90
7934;DHT22;4012;48.896;9.192;2023-05-10T14:28:05;18.00;99.90
7934;DHT22;4012;48.896;9.192;2023-05-10T14:30:31;18.00;99.90
7934;DHT22;4012;48.896;9.192;2023-05-10T14:32:58;17.80;99.90
7934;DHT22;4012;48.896;9.192;2023-05-10T14:35:23;17.90;99.90
7934;DHT22;4012;48.896;9.192;2023-05-10T14:37:49;18.10;99.90
7934;DHT22;4012;48.896;9.192;2023-05-10T14:40:15;18.40;99.90
7934;DHT22;4012;48.896;9.192;2023-05-10T14:42:42;18.60;99.90
7934;DHT22;4012;48.896;9.192;2023-05-10T14:45:08;18.80;99.90
7934;DHT22;4012;48.896;9.192;2023-05-10T14:47:34;18.30;99.90
7934;DHT22;4012;48.896;9.192;2023-05-10T14:49:59;18.30;99.90
7934;DHT22;4012;48.896;9.192;2023-05-10T14:52:25;18.20;99.90
7934;DHT22;4012;48.896;9.192;2023-05-10T14:54:51;18.30;99.90
7934;DHT22;4012;48.896;9.192;2023-05-10T14:57:17;17.90;99.90
7934;DHT22;4012;48.896;9.192;2023-05-10T14:59:42;18.00;99.90
7934;DHT22;4012;48.896;9.192;2023-05-10T15:02:08;18.10;99.90
7934;DHT22;4012;48.896;9.192;2023-05-10T15:04:33;18.10;99.90
7934;DHT22;4012;48.896;9.192;2023-05-10T15:06:59;18.30;99.90
7934;DHT22;4012;48.896;9.192;2023-05-10T15:09:25;18.60;99.90
7934;DHT22;4012;48.896;9.192;2023-05-10T15:11:53;18.50;99.90
7934;DHT22;4012;48.896;9.192;2023-05-10T15:14:18;18.20;99.90
7934;DHT22;4012;48.896;9.192;2023-05-10T15:16:44;18.10;99.90
7934;DHT22;4012;48.896;9.192;2023-05-10T15:19:09;18.40;99.90
7934;DHT22;4012;48.896;9.192;2023-05-10T15:21:35;18.60;99.90
7934;DHT22;4012;48.896;9.192;2023-05-10T15:24:07;18.50;99.90
7934;DHT22;4012;48.896;9.192;2023-05-10T15:26:33;18.60;99.90
7934;DHT22;4012;48.896;9.192;2023-05-10T15:28:58;18.00;99.90
7934;DHT22;4012;48.896;9.192;2023-05-10T15:31:24;18.00;99.90
7934;DHT22;4012;48.896;9.192;2023-05-10T15:33:50;18.20;99.90
7934;DHT22;4012;48.896;9.192;2023-05-10T15:36:16;18.40;99.90
7934;DHT22;4012;48.896;9.192;2023-05-10T15:38:43;18.20;99.90
7934;DHT22;4012;48.896;9.192;2023-05-10T15:41:09;18.20;99.90
7934;DHT22;4012;48.896;9.192;2023-05-10T15:43:34;18.30;99.90
7934;DHT22;4012;48.896;9.192;2023-05-10T15:46:00;18.50;99.90
7934;DHT22;4012;48.896;9.192;2023-05-10T15:48:26;18.40;99.90
7934;DHT22;4012;48.896;9.192;2023-05-10T15:50:52;18.20;99.90
7934;DHT22;4012;48.896;9.192;2023-05-10T15:53:18;18.20;99.90
7934;DHT22;4012;48.896;9.192;2023-05-10T15:55:43;17.90;99.90
7934;DHT22;4012;48.896;9.192;2023-05-10T15:58:09;17.90;99.90
7934;DHT22;4012;48.896;9.192;2023-05-10T16:00:35;17.80;99.90
7934;DHT22;4012;48.896;9.192;2023-05-10T16:03:01;18.00;99.90
7934;DHT22;4012;48.896;9.192;2023-05-10T16:05:26;17.60;99.90
7934;DHT22;4012;48.896;9.192;2023-05-10T16:07:56;17.40;99.90
7934;DHT22;4012;48.896;9.192;2023-05-10T16:10:21;17.60;99.90
7934;DHT22;4012;48.896;9.192;2023-05-10T16:12:47;17.60;99.90
7934;DHT22;4012;48.896;9.192;2023-05-10T16:15:13;17.70;99.90
7934;DHT22;4012;48.896;9.192;2023-05-10T16:17:41;17.80;99.90
7934;DHT22;4012;48.896;9.192;2023-05-10T16:20:07;17.80;99.90
7934;DHT22;4012;48.896;9.192;2023-05-10T16:22:34;17.90;99.90
7934;DHT22;4012;48.896;9.192;2023-05-10T16:24:59;17.60;99.90
7934;DHT22;4012;48.896;9.192;2023-05-10T16:27:25;17.70;99.90
7934;DHT22;4012;48.896;9.192;2023-05-10T16:29:54;17.60;99.90
7934;DHT22;4012;48.896;9.192;2023-05-10T16:32:20;17.50;99.90
7934;DHT22;4012;48.896;9.192;2023-05-10T16:34:46;17.70;99.90